Time;durP1;ratioP1;P1;durP2;ratioP2;P2;SDS_P1;SDS_P2;PMS_P1;PMS_P2;Temp;Humidity;BMP_temperature;BMP_pressure;BME280_temperature;BME280_humidity;BME280_pressure;Samples;Min_cycle;Max_cycle;Signal;HPM_P1;HPM_P2
2022/07/15 05:33:49;;;;;;;5.05;2.10;;;;;;;;;;5153560;23;20399;-58
2022/07/15 05:36:15;;;;;;;7.25;3.08;;;;;;;;;;4897105;29;20059;-59
2022/07/15 05:38:42;;;;;;;5.38;2.67;;;;;;;;;;4895577;29;20127;-60
2022/07/15 05:41:11;;;;;;;6.00;2.75;;;;;;;;;;4899570;29;20039;-59
2022/07/15 05:43:37;;;;;;;4.10;2.00;;;;;;;;;;4899880;29;20532;-59
2022/07/15 05:46:04;;;;;;;4.35;1.95;;;;;;;;;;4900003;29;20472;-60
2022/07/15 05:48:30;;;;;;;3.08;1.90;;;;;;;;;;4899288;29;20115;-62
2022/07/15 05:50:57;;;;;;;5.38;1.90;;;;;;;;;;4899259;29;20040;-60
2022/07/15 05:53:23;;;;;;;6.88;2.70;;;;;;;;;;4899332;29;20338;-59
2022/07/15 05:55:49;;;;;;;5.53;2.22;;;;;;;;;;4899640;29;20028;-60
2022/07/15 05:58:15;;;;;;;5.18;2.10;;;;;;;;;;4899333;29;20445;-60
2022/07/15 06:00:41;;;;;;;7.45;2.90;;;;;;;;;;4899558;29;20028;-59
2022/07/15 06:03:07;;;;;;;6.10;2.63;;;;;;;;;;4899095;29;20025;-59
2022/07/15 06:05:33;;;;;;;4.75;2.78;;;;;;;;;;4899341;29;20024;-60
2022/07/15 06:07:59;;;;;;;7.60;2.80;;;;;;;;;;4899102;29;20033;-59
2022/07/15 06:10:25;;;;;;;7.53;2.95;;;;;;;;;;4906569;29;20060;-60
2022/07/15 06:12:55;;;;;;;6.47;2.70;;;;;;;;;;4907576;29;20518;-59
2022/07/15 06:15:22;;;;;;;7.43;2.15;;;;;;;;;;4908296;29;20617;-59
2022/07/15 06:17:49;;;;;;;10.57;5.30;;;;;;;;;;4906769;29;20040;-61
2022/07/15 06:20:15;;;;;;;12.68;4.60;;;;;;;;;;4907276;29;20048;-61
2022/07/15 06:22:42;;;;;;;12.70;4.72;;;;;;;;;;4905488;29;20028;-61
2022/07/15 06:25:08;;;;;;;8.40;3.67;;;;;;;;;;4907798;29;20032;-60
2022/07/15 06:27:34;;;;;;;5.85;2.45;;;;;;;;;;4907035;29;20021;-61
2022/07/15 06:30:00;;;;;;;8.57;3.05;;;;;;;;;;4905710;29;20153;-60
2022/07/15 06:32:27;;;;;;;7.07;2.97;;;;;;;;;;4890532;29;20044;-61
2022/07/15 06:34:53;;;;;;;9.20;3.25;;;;;;;;;;4906621;29;20386;-61
2022/07/15 06:37:19;;;;;;;9.98;3.70;;;;;;;;;;4905902;29;20106;-58
2022/07/15 06:39:45;;;;;;;9.98;3.80;;;;;;;;;;4900850;29;20039;-62
2022/07/15 06:42:11;;;;;;;8.65;4.03;;;;;;;;;;4901990;29;20048;-59
2022/07/15 06:44:37;;;;;;;9.70;3.60;;;;;;;;;;4917502;29;20016;-59
2022/07/15 06:47:06;;;;;;;9.43;3.25;;;;;;;;;;4917144;29;20497;-59
2022/07/15 06:49:32;;;;;;;6.63;2.33;;;;;;;;;;4917337;29;20400;-59
2022/07/15 06:51:58;;;;;;;4.72;1.67;;;;;;;;;;4916689;29;20444;-60
2022/07/15 06:54:25;;;;;;;5.15;2.67;;;;;;;;;;4917392;29;20461;-59
2022/07/15 06:56:51;;;;;;;7.43;2.50;;;;;;;;;;4917383;29;20047;-59
2022/07/15 06:59:17;;;;;;;6.55;3.08;;;;;;;;;;4917420;29;20034;-60
2022/07/15 07:01:43;;;;;;;6.47;2.78;;;;;;;;;;4917542;29;20111;-60
2022/07/15 07:04:09;;;;;;;11.18;4.43;;;;;;;;;;4917292;29;20040;-61
2022/07/15 07:06:35;;;;;;;9.68;4.50;;;;;;;;;;4917098;29;20028;-59
2022/07/15 07:09:01;;;;;;;7.68;3.50;;;;;;;;;;4914029;29;20473;-60
2022/07/15 07:11:27;;;;;;;16.90;4.30;;;;;;;;;;4902291;29;20056;-60
2022/07/15 07:13:54;;;;;;;16.85;4.63;;;;;;;;;;4915183;29;20025;-61
2022/07/15 07:16:20;;;;;;;15.88;4.57;;;;;;;;;;4907218;29;20032;-60
2022/07/15 07:18:47;;;;;;;11.50;4.82;;;;;;;;;;4906012;29;20024;-61
2022/07/15 07:21:13;;;;;;;14.68;4.03;;;;;;;;;;4905161;29;20028;-60
2022/07/15 07:23:39;;;;;;;10.23;3.10;;;;;;;;;;4907055;29;20051;-63
2022/07/15 07:26:06;;;;;;;9.90;3.45;;;;;;;;;;4905250;29;20358;-61
2022/07/15 07:28:32;;;;;;;9.82;3.92;;;;;;;;;;4905226;29;20563;-60
2022/07/15 07:30:59;;;;;;;11.15;3.67;;;;;;;;;;4904936;29;20028;-61
2022/07/15 07:33:25;;;;;;;11.50;2.95;;;;;;;;;;4906015;29;20115;-61
2022/07/15 07:35:51;;;;;;;11.00;3.05;;;;;;;;;;4906211;29;20563;-61
2022/07/15 07:38:18;;;;;;;6.10;3.33;;;;;;;;;;4905545;29;20517;-61
2022/07/15 07:40:47;;;;;;;7.13;3.67;;;;;;;;;;4905326;29;20036;-61
2022/07/15 07:43:14;;;;;;;10.57;3.25;;;;;;;;;;4904797;29;20032;-60
2022/07/15 07:45:41;;;;;;;9.15;3.15;;;;;;;;;;4886390;29;20555;-61
2022/07/15 07:48:07;;;;;;;6.55;3.40;;;;;;;;;;4904939;29;20032;-61
2022/07/15 07:50:33;;;;;;;7.22;3.10;;;;;;;;;;4904312;29;20036;-61
2022/07/15 07:52:59;;;;;;;9.10;3.92;;;;;;;;;;4906089;29;20032;-61
2022/07/15 07:55:25;;;;;;;12.40;2.55;;;;;;;;;;4905868;29;20532;-60
2022/07/15 07:57:53;;;;;;;11.02;4.18;;;;;;;;;;4902494;29;20537;-61
2022/07/15 08:00:19;;;;;;;8.40;3.22;;;;;;;;;;4906011;29;20028;-62
2022/07/15 08:02:46;;;;;;;8.48;3.17;;;;;;;;;;4904804;29;20028;-61
2022/07/15 08:05:13;;;;;;;12.90;5.68;;;;;;;;;;4904892;29;20052;-61
2022/07/15 08:07:41;;;;;;;14.93;6.30;;;;;;;;;;4905968;29;20036;-62
2022/07/15 08:10:08;;;;;;;13.70;6.90;;;;;;;;;;4905110;29;20028;-60
2022/07/15 08:12:34;;;;;;;5.05;3.58;;;;;;;;;;4903457;29;20051;-62
2022/07/15 08:15:00;;;;;;;10.82;5.68;;;;;;;;;;4903704;29;20028;-60
2022/07/15 08:17:26;;;;;;;8.00;4.20;;;;;;;;;;4909814;29;20036;-61
2022/07/15 08:19:52;;;;;;;12.32;3.90;;;;;;;;;;4910040;29;20028;-60
2022/07/15 08:22:18;;;;;;;9.85;3.80;;;;;;;;;;4900286;29;20123;-61
2022/07/15 08:24:45;;;;;;;12.65;5.18;;;;;;;;;;4906892;29;20084;-60
2022/07/15 08:27:11;;;;;;;9.88;5.43;;;;;;;;;;4911802;29;20041;-61
2022/07/15 08:29:38;;;;;;;9.82;3.33;;;;;;;;;;4914972;29;20039;-59
2022/07/15 08:32:04;;;;;;;8.40;4.55;;;;;;;;;;4910363;29;20175;-59
2022/07/15 08:34:30;;;;;;;10.07;3.63;;;;;;;;;;4902237;29;20088;-59
2022/07/15 08:36:56;;;;;;;8.98;4.25;;;;;;;;;;4905337;29;20503;-60
2022/07/15 08:39:23;;;;;;;7.82;4.50;;;;;;;;;;4910567;29;20044;-60
2022/07/15 08:41:51;;;;;;;7.15;2.90;;;;;;;;;;4903655;29;20091;-61
2022/07/15 08:44:17;;;;;;;8.25;3.35;;;;;;;;;;4905305;29;20071;-60
2022/07/15 08:46:46;;;;;;;13.18;3.58;;;;;;;;;;4904743;29;20032;-59
2022/07/15 08:49:16;;;;;;;10.13;4.47;;;;;;;;;;4906265;29;20036;-59
2022/07/15 08:51:44;;;;;;;3.80;2.08;;;;;;;;;;4914996;29;20055;-59
2022/07/15 08:54:11;;;;;;;5.80;3.08;;;;;;;;;;4915186;29;20434;-60
2022/07/15 08:56:37;;;;;;;7.28;3.63;;;;;;;;;;4915717;29;20110;-60
2022/07/15 08:59:04;;;;;;;7.95;3.92;;;;;;;;;;4907292;29;20372;-60
2022/07/15 09:01:31;;;;;;;6.35;3.63;;;;;;;;;;4903301;29;20043;-60
2022/07/15 09:03:57;;;;;;;10.13;5.00;;;;;;;;;;4901448;29;20020;-60
2022/07/15 09:06:38;;;;;;;9.90;4.10;;;;;;;;;;4904200;29;20031;-60
2022/07/15 09:09:24;;;;;;;7.05;4.38;;;;;;;;;;4901927;29;20105;-60
2022/07/15 09:11:55;;;;;;;5.25;3.38;;;;;;;;;;4904023;29;20107;-61
2022/07/15 09:14:22;;;;;;;5.55;3.47;;;;;;;;;;4903940;29;20025;-61
2022/07/15 09:16:48;;;;;;;6.03;3.08;;;;;;;;;;4903564;29;20024;-60
2022/07/15 09:19:14;;;;;;;5.07;2.42;;;;;;;;;;4905125;29;20025;-60
2022/07/15 09:21:42;;;;;;;6.32;3.25;;;;;;;;;;4903677;29;20507;-62
2022/07/15 09:24:20;;;;;;;4.72;2.90;;;;;;;;;;4903645;29;20051;-61
2022/07/15 09:26:46;;;;;;;5.55;2.50;;;;;;;;;;4903670;29;20505;-61
2022/07/15 09:36:01;;;;;;;7.20;2.92;;;;;;;;;;4856724;29;20210;-61
2022/07/15 09:37:55;;;;;;;6.07;2.70;;;;;;;;;;4864993;29;20053;-61
2022/07/15 09:40:21;;;;;;;7.05;3.22;;;;;;;;;;4864243;29;20117;-61
2022/07/15 09:43:07;;;;;;;4.80;2.90;;;;;;;;;;4863799;29;20082;-61
2022/07/15 09:45:37;;;;;;;8.90;2.42;;;;;;;;;;4864411;29;20022;-60
2022/07/15 09:48:09;;;;;;;7.50;3.30;;;;;;;;;;4864086;29;20548;-61
2022/07/15 09:50:36;;;;;;;15.57;5.60;;;;;;;;;;4861999;29;20070;-61
2022/07/15 09:53:10;;;;;;;6.07;3.10;;;;;;;;;;4863835;29;20041;-61
2022/07/15 09:55:39;;;;;;;6.63;3.13;;;;;;;;;;4865161;29;20037;-61
2022/07/15 09:58:07;;;;;;;31.52;8.05;;;;;;;;;;4864540;29;20045;-61
2022/07/15 10:00:34;;;;;;;6.05;2.60;;;;;;;;;;4863263;29;20216;-61
2022/07/15 10:03:00;;;;;;;7.53;2.67;;;;;;;;;;4884897;29;20119;-61
2022/07/15 10:05:27;;;;;;;9.10;3.38;;;;;;;;;;4913014;29;20376;-61
2022/07/15 10:07:56;;;;;;;10.63;4.32;;;;;;;;;;4913175;29;20472;-61
2022/07/15 10:10:22;;;;;;;10.75;4.82;;;;;;;;;;4913026;29;20043;-61
2022/07/15 10:12:54;;;;;;;8.40;3.65;;;;;;;;;;4913269;29;20036;-61
2022/07/15 10:15:41;;;;;;;7.25;4.40;;;;;;;;;;4909443;29;20497;-61
2022/07/15 10:18:13;;;;;;;9.00;2.90;;;;;;;;;;4910998;29;20059;-61
2022/07/15 10:20:55;;;;;;;6.13;2.92;;;;;;;;;;4908749;29;20083;-60
2022/07/15 10:23:27;;;;;;;11.10;3.38;;;;;;;;;;4909667;29;20102;-61
2022/07/15 10:26:15;;;;;;;10.43;5.65;;;;;;;;;;4912535;29;20080;-60
2022/07/15 10:28:51;;;;;;;17.00;6.55;;;;;;;;;;4913100;29;20481;-60
2022/07/15 10:31:25;;;;;;;7.13;3.10;;;;;;;;;;4911955;29;20572;-61
2022/07/15 10:34:06;;;;;;;13.57;8.38;;;;;;;;;;4915819;29;20028;-60
2022/07/15 10:36:48;;;;;;;9.73;3.60;;;;;;;;;;4916028;29;20055;-60
2022/07/15 10:39:14;;;;;;;12.18;5.97;;;;;;;;;;4914503;29;20088;-61
2022/07/15 10:41:54;;;;;;;7.80;4.68;;;;;;;;;;4917648;29;20492;-60
2022/07/15 10:44:21;;;;;;;12.00;5.68;;;;;;;;;;4917380;29;20028;-60
2022/07/15 10:46:48;;;;;;;9.75;5.05;;;;;;;;;;4917555;29;20083;-60
2022/07/15 10:49:14;;;;;;;10.55;4.80;;;;;;;;;;4917357;29;20465;-61
2022/07/15 10:51:41;;;;;;;16.75;8.80;;;;;;;;;;4916972;29;20489;-60
2022/07/15 10:54:08;;;;;;;8.50;3.55;;;;;;;;;;4917376;29;20071;-61
2022/07/15 10:56:35;;;;;;;17.20;8.32;;;;;;;;;;4916545;29;20382;-60
2022/07/15 10:59:07;;;;;;;10.20;4.65;;;;;;;;;;4916051;29;20490;-60
2022/07/15 11:01:33;;;;;;;7.72;3.58;;;;;;;;;;4911514;29;20028;-59
2022/07/15 11:04:20;;;;;;;9.60;5.22;;;;;;;;;;4915896;29;20036;-59
2022/07/15 11:07:07;;;;;;;10.13;4.82;;;;;;;;;;4911295;29;20379;-61
2022/07/15 11:09:52;;;;;;;6.78;3.83;;;;;;;;;;4913363;29;20387;-62
2022/07/15 11:12:19;;;;;;;5.95;3.25;;;;;;;;;;4914946;29;20048;-62
2022/07/15 11:14:48;;;;;;;10.63;3.58;;;;;;;;;;4917067;29;20028;-62
2022/07/15 11:17:19;;;;;;;8.13;3.75;;;;;;;;;;4916914;29;20099;-62
2022/07/15 11:19:49;;;;;;;12.93;5.40;;;;;;;;;;4916914;29;20540;-62
2022/07/15 11:22:17;;;;;;;7.93;4.18;;;;;;;;;;4916858;29;20035;-61
2022/07/15 11:24:43;;;;;;;6.50;3.95;;;;;;;;;;4916663;29;20221;-61
2022/07/15 11:27:09;;;;;;;9.77;3.65;;;;;;;;;;4916494;29;20055;-61
2022/07/15 11:29:46;;;;;;;7.22;3.10;;;;;;;;;;4916408;29;20040;-62
2022/07/15 11:32:13;;;;;;;9.65;3.03;;;;;;;;;;4916590;29;20488;-62
2022/07/15 11:34:42;;;;;;;6.03;2.78;;;;;;;;;;4915961;29;20123;-62
2022/07/15 11:37:10;;;;;;;6.03;3.30;;;;;;;;;;4915819;29;20036;-62
2022/07/15 11:39:36;;;;;;;11.57;5.18;;;;;;;;;;4916490;29;20032;-62
2022/07/15 11:44:48;;;;;;;5.50;2.95;;;;;;;;;;4916574;29;20431;-62
2022/07/15 11:47:14;;;;;;;5.47;3.65;;;;;;;;;;4916717;29;20099;-62
2022/07/15 11:49:44;;;;;;;8.15;3.42;;;;;;;;;;4916000;29;20026;-62
2022/07/15 11:52:21;;;;;;;8.60;4.47;;;;;;;;;;4916002;29;20119;-62
2022/07/15 11:54:47;;;;;;;8.18;3.58;;;;;;;;;;4916171;29;20071;-62
2022/07/15 11:57:14;;;;;;;7.32;3.28;;;;;;;;;;4916109;29;20557;-61
2022/07/15 11:59:40;;;;;;;6.40;3.40;;;;;;;;;;4916019;29;20108;-62
2022/07/15 12:02:08;;;;;;;15.27;7.43;;;;;;;;;;4916099;29;20497;-62
2022/07/15 12:04:35;;;;;;;8.10;3.85;;;;;;;;;;4915554;29;20055;-62
2022/07/15 12:07:01;;;;;;;7.55;2.90;;;;;;;;;;4915993;29;20036;-62
2022/07/15 12:09:38;;;;;;;7.25;3.80;;;;;;;;;;4915992;29;20056;-62
2022/07/15 12:12:04;;;;;;;5.75;2.63;;;;;;;;;;4915833;29;20115;-62
2022/07/15 12:14:31;;;;;;;6.20;2.75;;;;;;;;;;4916178;29;20480;-62
2022/07/15 12:16:57;;;;;;;6.43;3.00;;;;;;;;;;4915882;29;20036;-62
2022/07/15 12:19:28;;;;;;;5.63;2.55;;;;;;;;;;4915825;29;20035;-62
2022/07/15 12:21:55;;;;;;;5.18;2.63;;;;;;;;;;4915767;29;20032;-62
2022/07/15 12:24:22;;;;;;;6.82;2.70;;;;;;;;;;4915362;29;20024;-62
2022/07/15 12:26:51;;;;;;;9.23;4.65;;;;;;;;;;4915361;29;20035;-62
2022/07/15 12:29:21;;;;;;;12.75;7.28;;;;;;;;;;4915445;29;20020;-61
2022/07/15 12:31:56;;;;;;;5.22;2.38;;;;;;;;;;4915403;29;20048;-62
2022/07/15 12:34:23;;;;;;;4.55;2.33;;;;;;;;;;4914725;29;20039;-60
2022/07/15 12:36:56;;;;;;;6.75;3.40;;;;;;;;;;4915420;29;20469;-61
2022/07/15 12:39:22;;;;;;;5.68;2.83;;;;;;;;;;4915158;29;20052;-62
2022/07/15 12:41:59;;;;;;;4.97;2.35;;;;;;;;;;4915373;29;20032;-63
2022/07/15 12:44:25;;;;;;;6.20;2.45;;;;;;;;;;4915211;29;20832;-61
2022/07/15 12:46:51;;;;;;;5.72;2.53;;;;;;;;;;4915140;29;20468;-61
2022/07/15 12:49:36;;;;;;;4.65;2.20;;;;;;;;;;4913804;29;20378;-61
2022/07/15 12:52:22;;;;;;;7.78;2.95;;;;;;;;;;4909514;29;20048;-59
2022/07/15 12:54:49;;;;;;;8.63;2.50;;;;;;;;;;4913375;29;20392;-59
2022/07/15 12:57:24;;;;;;;3.90;1.80;;;;;;;;;;4913701;29;20032;-60
2022/07/15 12:59:57;;;;;;;5.13;1.98;;;;;;;;;;4914483;29;20028;-60
2022/07/15 13:02:24;;;;;;;3.45;1.60;;;;;;;;;;4914776;29;20112;-60
2022/07/15 13:04:51;;;;;;;3.38;1.60;;;;;;;;;;4914334;29;20028;-60
2022/07/15 13:07:17;;;;;;;4.70;2.05;;;;;;;;;;4914806;29;20499;-60
2022/07/15 13:09:44;;;;;;;4.97;1.92;;;;;;;;;;4914293;29;20036;-60
2022/07/15 13:12:10;;;;;;;4.20;1.70;;;;;;;;;;4914455;29;20040;-59
2022/07/15 13:14:37;;;;;;;5.78;1.80;;;;;;;;;;4914622;29;20230;-60
2022/07/15 13:17:04;;;;;;;4.50;2.10;;;;;;;;;;4915080;29;20032;-60
2022/07/15 13:19:30;;;;;;;3.50;1.90;;;;;;;;;;4914649;29;20038;-60
2022/07/15 13:21:56;;;;;;;4.10;1.98;;;;;;;;;;4914695;29;20020;-60
2022/07/15 13:24:22;;;;;;;6.63;2.20;;;;;;;;;;4913446;29;20116;-59
2022/07/15 13:26:48;;;;;;;7.35;2.20;;;;;;;;;;4913652;29;20103;-60
2022/07/15 13:29:14;;;;;;;8.00;2.40;;;;;;;;;;4914741;29;20472;-60
2022/07/15 13:31:40;;;;;;;5.70;2.50;;;;;;;;;;4914546;29;20083;-60
2022/07/15 13:34:06;;;;;;;8.13;3.97;;;;;;;;;;4914192;29;20028;-60
2022/07/15 13:36:33;;;;;;;5.40;3.50;;;;;;;;;;4913879;29;20044;-60
2022/07/15 13:38:59;;;;;;;6.20;3.60;;;;;;;;;;4914620;29;20044;-60
2022/07/15 13:41:25;;;;;;;7.60;2.70;;;;;;;;;;4914610;29;20393;-60
2022/07/15 13:43:51;;;;;;;4.05;2.45;;;;;;;;;;4914523;29;20028;-60
2022/07/15 13:46:17;;;;;;;7.22;2.85;;;;;;;;;;4914548;29;20020;-60
2022/07/15 13:48:43;;;;;;;8.00;3.40;;;;;;;;;;4913380;29;20083;-60
2022/07/15 13:51:24;;;;;;;8.40;3.90;;;;;;;;;;4913897;29;20115;-60
2022/07/15 13:53:54;;;;;;;6.60;3.03;;;;;;;;;;4913866;29;20040;-60
2022/07/15 13:56:21;;;;;;;6.78;4.15;;;;;;;;;;4913635;29;20027;-60
2022/07/15 13:58:48;;;;;;;6.40;2.55;;;;;;;;;;4914439;29;20028;-61
2022/07/15 14:01:14;;;;;;;6.28;3.45;;;;;;;;;;4915767;29;20115;-60
2022/07/15 14:03:40;;;;;;;7.25;3.13;;;;;;;;;;4916791;29;20028;-60
2022/07/15 14:06:07;;;;;;;8.98;2.80;;;;;;;;;;4917390;29;20079;-60
2022/07/15 14:08:33;;;;;;;7.78;2.80;;;;;;;;;;4917307;29;20477;-60
2022/07/15 14:10:59;;;;;;;4.15;2.33;;;;;;;;;;4916599;29;20047;-60
2022/07/15 14:13:25;;;;;;;5.78;3.42;;;;;;;;;;4917363;29;20095;-60
2022/07/15 14:15:51;;;;;;;7.50;2.97;;;;;;;;;;4917769;29;20031;-60
2022/07/15 14:18:17;;;;;;;7.88;2.88;;;;;;;;;;4917791;29;20051;-60
2022/07/15 14:20:48;;;;;;;8.15;2.58;;;;;;;;;;4917463;29;20056;-60
2022/07/15 14:23:14;;;;;;;5.25;2.67;;;;;;;;;;4917582;29;20036;-60
2022/07/15 14:25:40;;;;;;;11.63;3.90;;;;;;;;;;4917130;29;20059;-60
2022/07/15 14:28:06;;;;;;;6.03;2.83;;;;;;;;;;4917366;29;20036;-59
2022/07/15 14:30:32;;;;;;;8.55;3.22;;;;;;;;;;4917313;29;20032;-61
2022/07/15 14:32:58;;;;;;;7.80;4.07;;;;;;;;;;4917513;29;20051;-60
2022/07/15 14:35:24;;;;;;;8.23;5.15;;;;;;;;;;4916763;29;20059;-60
2022/07/15 14:37:50;;;;;;;7.30;3.65;;;;;;;;;;4917340;29;20039;-61
2022/07/15 14:40:18;;;;;;;10.13;4.22;;;;;;;;;;4917149;29;20048;-60
2022/07/15 14:42:44;;;;;;;10.93;5.43;;;;;;;;;;4917173;29;20075;-60
2022/07/15 14:45:10;;;;;;;8.23;4.07;;;;;;;;;;4917390;29;20036;-60
2022/07/15 14:47:37;;;;;;;5.93;3.17;;;;;;;;;;4917522;29;20111;-60
2022/07/15 14:50:03;;;;;;;6.85;2.47;;;;;;;;;;4917243;29;20036;-60
2022/07/15 14:52:29;;;;;;;10.13;4.13;;;;;;;;;;4916882;29;20088;-60
2022/07/15 14:54:55;;;;;;;8.50;3.42;;;;;;;;;;4916394;29;20032;-60
2022/07/15 14:57:21;;;;;;;11.55;4.22;;;;;;;;;;4917110;29;20032;-62
2022/07/15 14:59:47;;;;;;;9.15;4.03;;;;;;;;;;4917310;29;20036;-61
2022/07/15 15:02:13;;;;;;;7.22;2.90;;;;;;;;;;4917047;29;20362;-59
2022/07/15 15:04:39;;;;;;;6.40;2.70;;;;;;;;;;4916357;29;20503;-61
2022/07/15 15:07:05;;;;;;;8.55;4.05;;;;;;;;;;4916875;29;20034;-60
2022/07/15 15:09:32;;;;;;;6.55;4.15;;;;;;;;;;4916578;29;20084;-61
2022/07/15 15:11:58;;;;;;;8.20;3.45;;;;;;;;;;4915723;29;20040;-61
2022/07/15 15:14:24;;;;;;;5.40;3.50;;;;;;;;;;4917121;29;20115;-60
2022/07/15 15:16:50;;;;;;;6.43;3.13;;;;;;;;;;4917034;29;20028;-59
2022/07/15 15:19:16;;;;;;;5.93;2.25;;;;;;;;;;4916842;29;20028;-61
2022/07/15 15:21:42;;;;;;;8.02;3.88;;;;;;;;;;4916593;29;20035;-61
2022/07/15 15:24:08;;;;;;;6.57;2.90;;;;;;;;;;4916748;29;20103;-60
2022/07/15 15:26:34;;;;;;;13.18;5.22;;;;;;;;;;4915784;29;20788;-59
2022/07/15 15:29:00;;;;;;;10.43;4.75;;;;;;;;;;4916376;29;20032;-60
2022/07/15 15:31:26;;;;;;;4.65;1.70;;;;;;;;;;4916361;29;20048;-59
2022/07/15 15:33:53;;;;;;;4.30;2.33;;;;;;;;;;4916342;29;20032;-60
2022/07/15 15:36:19;;;;;;;8.40;4.18;;;;;;;;;;4915405;29;20052;-59
2022/07/15 15:38:45;;;;;;;3.70;1.80;;;;;;;;;;4916147;29;20036;-60
2022/07/15 15:41:12;;;;;;;4.82;1.50;;;;;;;;;;4916398;29;20137;-60
2022/07/15 15:43:38;;;;;;;6.40;1.70;;;;;;;;;;4916512;29;20392;-59
2022/07/15 15:46:04;;;;;;;4.20;1.52;;;;;;;;;;4916499;29;20540;-59
2022/07/15 15:48:30;;;;;;;4.88;1.80;;;;;;;;;;4916279;29;20078;-59
2022/07/15 15:50:57;;;;;;;5.35;1.50;;;;;;;;;;4916153;29;20084;-60
2022/07/15 15:53:23;;;;;;;7.03;2.20;;;;;;;;;;4916018;29;20043;-59
2022/07/15 15:55:49;;;;;;;5.18;2.42;;;;;;;;;;4915982;29;20031;-59
2022/07/15 15:58:15;;;;;;;3.95;1.83;;;;;;;;;;4915728;29;20035;-61
2022/07/15 16:00:41;;;;;;;4.25;1.70;;;;;;;;;;4899121;29;20044;-59
2022/07/15 16:03:07;;;;;;;7.57;2.30;;;;;;;;;;4916195;29;20043;-59
2022/07/15 16:05:33;;;;;;;5.18;2.17;;;;;;;;;;4915716;29;20036;-60
2022/07/15 16:07:59;;;;;;;9.35;3.35;;;;;;;;;;4915970;29;20056;-60
2022/07/15 16:10:26;;;;;;;8.27;2.30;;;;;;;;;;4915729;29;20481;-61
2022/07/15 16:12:52;;;;;;;6.82;2.00;;;;;;;;;;4915782;29;20400;-63
2022/07/15 16:15:18;;;;;;;9.63;1.95;;;;;;;;;;4916008;29;20079;-60
2022/07/15 16:17:44;;;;;;;7.53;1.83;;;;;;;;;;4915776;29;20416;-60
2022/07/15 16:20:10;;;;;;;8.52;1.77;;;;;;;;;;4915573;29;20528;-60
2022/07/15 16:22:52;;;;;;;6.45;1.85;;;;;;;;;;4915460;29;20038;-61
2022/07/15 16:25:18;;;;;;;7.80;1.63;;;;;;;;;;4915898;29;20046;-60
2022/07/15 16:27:44;;;;;;;7.65;1.65;;;;;;;;;;4915451;29;20036;-60
2022/07/15 16:30:10;;;;;;;6.20;1.55;;;;;;;;;;4915537;29;20025;-60
2022/07/15 16:32:36;;;;;;;5.32;1.48;;;;;;;;;;4915721;29;20044;-61
2022/07/15 16:35:03;;;;;;;8.70;1.40;;;;;;;;;;4915110;29;20055;-59
2022/07/15 16:37:29;;;;;;;3.88;1.30;;;;;;;;;;4915197;29;20107;-59
2022/07/15 16:39:55;;;;;;;5.20;1.27;;;;;;;;;;4915033;29;20067;-60
2022/07/15 16:42:21;;;;;;;6.03;1.48;;;;;;;;;;4915401;29;20475;-62
2022/07/15 16:44:47;;;;;;;4.13;1.65;;;;;;;;;;4912058;29;20047;-62
2022/07/15 16:47:13;;;;;;;4.05;1.50;;;;;;;;;;4905261;29;20146;-60
2022/07/15 16:49:39;;;;;;;6.28;1.33;;;;;;;;;;4905121;29;20020;-59
2022/07/15 16:52:06;;;;;;;3.58;1.50;;;;;;;;;;4903496;29;20080;-60
2022/07/15 16:54:33;;;;;;;5.95;2.00;;;;;;;;;;4898061;29;20060;-59
2022/07/15 16:56:59;;;;;;;4.35;1.80;;;;;;;;;;4899228;29;20028;-60
2022/07/15 16:59:25;;;;;;;3.53;1.60;;;;;;;;;;4914941;29;20028;-61
2022/07/15 17:01:51;;;;;;;6.20;1.77;;;;;;;;;;4914737;29;20573;-62
2022/07/15 17:04:18;;;;;;;6.43;1.63;;;;;;;;;;4914704;29;20126;-62
2022/07/15 17:06:44;;;;;;;4.50;1.80;;;;;;;;;;4914698;29;20028;-60
2022/07/15 17:09:10;;;;;;;5.43;1.70;;;;;;;;;;4914739;29;20028;-60
2022/07/15 17:11:37;;;;;;;6.57;1.70;;;;;;;;;;4915084;29;20039;-59
2022/07/15 17:14:04;;;;;;;8.05;1.67;;;;;;;;;;4915230;29;20118;-60
2022/07/15 17:16:30;;;;;;;5.03;1.70;;;;;;;;;;4914970;29;20139;-60
2022/07/15 17:18:56;;;;;;;4.07;1.67;;;;;;;;;;4915227;29;20122;-61
2022/07/15 17:21:22;;;;;;;4.78;1.90;;;;;;;;;;4914617;29;20035;-59
2022/07/15 17:23:48;;;;;;;4.07;1.73;;;;;;;;;;4914645;29;20028;-60
2022/07/15 17:26:14;;;;;;;4.57;1.60;;;;;;;;;;4914608;29;20043;-60
2022/07/15 17:28:40;;;;;;;4.25;1.80;;;;;;;;;;4914383;29;20028;-59
2022/07/15 17:31:06;;;;;;;3.92;1.88;;;;;;;;;;4914688;29;20024;-60
2022/07/15 17:33:32;;;;;;;5.18;1.80;;;;;;;;;;4914847;29;20036;-59
2022/07/15 17:36:00;;;;;;;2.67;1.52;;;;;;;;;;4915577;29;20055;-64
2022/07/15 17:38:26;;;;;;;7.90;1.80;;;;;;;;;;4918187;29;20476;-59
2022/07/15 17:40:52;;;;;;;3.70;1.42;;;;;;;;;;4918625;29;20047;-59
2022/07/15 17:43:19;;;;;;;6.30;1.80;;;;;;;;;;4918284;29;20391;-58
2022/07/15 17:45:45;;;;;;;6.25;1.70;;;;;;;;;;4918262;29;20536;-59
2022/07/15 17:48:11;;;;;;;5.32;1.67;;;;;;;;;;4917967;29;20151;-60
2022/07/15 17:50:37;;;;;;;7.82;2.03;;;;;;;;;;4918152;29;20491;-59
2022/07/15 17:53:03;;;;;;;5.28;1.63;;;;;;;;;;4918283;29;20084;-59
2022/07/15 17:55:29;;;;;;;4.65;1.80;;;;;;;;;;4918226;29;20029;-59
2022/07/15 17:57:55;;;;;;;4.75;1.67;;;;;;;;;;4918071;29;20088;-59
2022/07/15 18:00:21;;;;;;;4.25;1.83;;;;;;;;;;4918305;29;20032;-59
2022/07/15 18:02:47;;;;;;;5.47;1.90;;;;;;;;;;4918144;29;20083;-59
2022/07/15 18:05:13;;;;;;;3.75;1.85;;;;;;;;;;4918067;29;20078;-59
2022/07/15 18:07:39;;;;;;;4.03;1.50;;;;;;;;;;4918123;29;20024;-60
2022/07/15 18:10:06;;;;;;;9.05;2.15;;;;;;;;;;4917977;29;20389;-59
2022/07/15 18:12:32;;;;;;;6.30;1.70;;;;;;;;;;4918101;29;20052;-59
2022/07/15 18:14:58;;;;;;;5.35;1.77;;;;;;;;;;4918312;29;20059;-60
2022/07/15 18:17:24;;;;;;;6.05;1.52;;;;;;;;;;4918071;29;20056;-58
2022/07/15 18:19:50;;;;;;;4.38;2.00;;;;;;;;;;4917690;29;20020;-58
2022/07/15 18:22:16;;;;;;;11.25;1.80;;;;;;;;;;4917933;29;20084;-59
2022/07/15 18:24:44;;;;;;;5.25;1.90;;;;;;;;;;4917849;29;20030;-59
2022/07/15 18:27:10;;;;;;;4.93;1.77;;;;;;;;;;4917269;29;20107;-58
2022/07/15 18:29:36;;;;;;;4.93;1.90;;;;;;;;;;4917656;29;20135;-60
2022/07/15 18:32:02;;;;;;;5.03;2.00;;;;;;;;;;4917742;29;20052;-59
2022/07/15 18:34:29;;;;;;;4.07;1.80;;;;;;;;;;4917178;29;20468;-60
2022/07/15 18:36:55;;;;;;;6.20;2.00;;;;;;;;;;4917126;29;20066;-60
2022/07/15 18:39:21;;;;;;;4.20;2.40;;;;;;;;;;4917269;29;20032;-58
2022/07/15 18:41:47;;;;;;;5.53;2.03;;;;;;;;;;4917536;29;20040;-58
2022/07/15 18:44:13;;;;;;;5.25;2.25;;;;;;;;;;4917335;29;20036;-59
2022/07/15 18:46:39;;;;;;;5.85;2.10;;;;;;;;;;4916818;29;20042;-59
2022/07/15 18:49:05;;;;;;;6.70;2.45;;;;;;;;;;4916975;29;20024;-59
2022/07/15 18:51:31;;;;;;;5.45;2.25;;;;;;;;;;4917111;29;20040;-59
2022/07/15 18:53:57;;;;;;;4.95;2.00;;;;;;;;;;4917094;29;20362;-58
2022/07/15 18:56:24;;;;;;;4.03;2.13;;;;;;;;;;4917153;29;20036;-59
2022/07/15 18:58:52;;;;;;;6.60;2.38;;;;;;;;;;4917296;29;20461;-59
2022/07/15 19:01:18;;;;;;;4.13;2.17;;;;;;;;;;4917053;29;20028;-58
2022/07/15 19:03:44;;;;;;;7.05;1.95;;;;;;;;;;4917193;29;20036;-60
2022/07/15 19:06:10;;;;;;;5.75;2.15;;;;;;;;;;4916683;29;20028;-59
2022/07/15 19:08:36;;;;;;;4.63;2.25;;;;;;;;;;4916870;29;20100;-59
2022/07/15 19:11:02;;;;;;;5.75;2.03;;;;;;;;;;4916971;29;20482;-58
2022/07/15 19:13:29;;;;;;;3.33;2.08;;;;;;;;;;4905870;29;20028;-59
2022/07/15 19:15:55;;;;;;;4.15;2.00;;;;;;;;;;4898282;29;20052;-59
2022/07/15 19:18:52;;;;;;;7.25;2.30;;;;;;;;;;4898145;29;20033;-60
2022/07/15 19:21:26;;;;;;;5.22;2.00;;;;;;;;;;4896176;29;20481;-60
2022/07/15 19:26:55;;;;;;;4.85;2.38;;;;;;;;;;4898322;29;20444;-57
2022/07/15 19:29:21;;;;;;;4.90;2.30;;;;;;;;;;4898089;29;20064;-57
2022/07/15 19:34:35;;;;;;;5.82;2.20;;;;;;;;;;4897217;29;20085;-59
2022/07/15 19:37:01;;;;;;;3.70;1.70;;;;;;;;;;4897244;29;20056;-61
2022/07/15 19:39:27;;;;;;;4.60;2.40;;;;;;;;;;4897248;29;20032;-59
2022/07/15 19:45:09;;;;;;;5.20;1.95;;;;;;;;;;4897937;29;20067;-58
2022/07/15 19:47:35;;;;;;;6.78;2.10;;;;;;;;;;4897573;29;20035;-57
2022/07/15 19:53:14;;;;;;;6.45;1.95;;;;;;;;;;4896832;29;20050;-60
2022/07/15 19:55:59;;;;;;;4.47;1.90;;;;;;;;;;4897307;29;20084;-58
2022/07/15 20:00:15;;;;;;;4.70;1.90;;;;;;;;;;4896971;29;20036;-58
2022/07/15 20:01:35;;;;;;;5.28;1.83;;;;;;;;;;4896666;29;20757;-59
2022/07/15 20:04:01;;;;;;;3.92;2.05;;;;;;;;;;4897083;29;20032;-59
2022/07/15 20:06:27;;;;;;;5.03;2.10;;;;;;;;;;4897094;29;20128;-59
2022/07/15 20:08:53;;;;;;;8.05;2.20;;;;;;;;;;4891450;29;20044;-59
2022/07/15 20:11:19;;;;;;;5.28;1.80;;;;;;;;;;4878198;29;20061;-59
2022/07/15 20:13:45;;;;;;;4.38;2.08;;;;;;;;;;4878075;29;20045;-59
2022/07/15 20:16:11;;;;;;;5.05;1.90;;;;;;;;;;4878178;29;20029;-59
2022/07/15 20:18:37;;;;;;;4.93;1.85;;;;;;;;;;4878515;29;20116;-59
2022/07/15 20:21:03;;;;;;;4.25;2.00;;;;;;;;;;4878179;29;20053;-60
2022/07/15 20:23:30;;;;;;;10.32;2.63;;;;;;;;;;4877759;29;20033;-60
2022/07/15 20:25:56;;;;;;;5.07;2.10;;;;;;;;;;4878116;29;20085;-59
2022/07/15 20:28:22;;;;;;;5.95;2.30;;;;;;;;;;4878139;29;20060;-59
2022/07/15 20:30:49;;;;;;;5.57;2.30;;;;;;;;;;4877868;29;20028;-59
2022/07/15 20:33:16;;;;;;;4.75;1.95;;;;;;;;;;4861100;29;20041;-59
2022/07/15 20:35:42;;;;;;;5.80;2.13;;;;;;;;;;4887859;29;20061;-59
2022/07/15 20:38:08;;;;;;;5.78;2.20;;;;;;;;;;4896514;29;20378;-59